createdAt,value
2018-10-06T00:01:57.927Z,101174.30
2018-10-06T00:07:01.124Z,101178.83
2018-10-06T00:12:04.326Z,101167.31
2018-10-06T00:17:07.592Z,101168.34
2018-10-06T00:22:10.772Z,101178.64
2018-10-06T00:27:13.970Z,101164.59
2018-10-06T00:32:17.349Z,101159.11
2018-10-06T00:37:20.556Z,101158.42
2018-10-06T00:42:23.759Z,101143.16
2018-10-06T00:47:26.886Z,101140.88
2018-10-06T00:52:30.245Z,101134.28
2018-10-06T00:57:33.481Z,101135.39
2018-10-06T01:02:36.739Z,101125.78
2018-10-06T01:07:39.854Z,101119.85
2018-10-06T01:12:43.046Z,101121.17
2018-10-06T01:17:46.208Z,101111.80
2018-10-06T01:22:49.343Z,101102.66
2018-10-06T01:27:52.543Z,101105.04
2018-10-06T01:32:55.713Z,101101.27
2018-10-06T01:37:59.025Z,101093.80
2018-10-06T01:43:02.431Z,101089.89
2018-10-06T01:48:05.656Z,101093.89
2018-10-06T01:53:08.899Z,101088.59
2018-10-06T01:58:12.131Z,101089.73
2018-10-06T02:03:15.271Z,101081.67
2018-10-06T02:08:18.454Z,101079.18
2018-10-06T02:13:21.590Z,101074.15
2018-10-06T02:18:24.820Z,101062.03
2018-10-06T02:23:27.962Z,101054.91
2018-10-06T02:28:31.238Z,101048.73
2018-10-06T02:33:34.644Z,101043.49
2018-10-06T02:38:38.238Z,101044.89
2018-10-06T02:43:41.576Z,101038.42
2018-10-06T02:48:44.716Z,101035.88
2018-10-06T02:53:47.833Z,101022.10
2018-10-06T02:58:50.956Z,101019.93
2018-10-06T03:03:54.245Z,101013.16
2018-10-06T03:08:57.417Z,101011.97
2018-10-06T03:14:00.595Z,101007.74
2018-10-06T03:19:03.830Z,101012.23
2018-10-06T03:24:07.286Z,101008.78
2018-10-06T03:29:10.490Z,101004.93
2018-10-06T03:34:13.643Z,100993.47
2018-10-06T03:39:17.097Z,100989.34
2018-10-06T03:44:20.337Z,100982.52
2018-10-06T03:49:23.516Z,100987.48
2018-10-06T03:54:26.677Z,100968.58
2018-10-06T03:59:30.577Z,100975.37
2018-10-06T04:04:33.875Z,100970.33
2018-10-06T04:09:37.159Z,100970.44
2018-10-06T04:14:40.359Z,100966.07
2018-10-06T04:19:43.566Z,100967.98
2018-10-06T04:24:46.721Z,100965.96
2018-10-06T04:29:49.885Z,100954.97
2018-10-06T04:34:53.092Z,100960.71
2018-10-06T04:39:56.304Z,100952.49
2018-10-06T04:44:59.538Z,100943.95
2018-10-06T04:50:02.795Z,100927.97
2018-10-06T04:55:06.094Z,100932.95
2018-10-06T05:00:09.308Z,100928.14
2018-10-06T05:05:13.281Z,100927.10
2018-10-06T05:10:17.090Z,100922.42
2018-10-06T05:15:20.276Z,100920.52
2018-10-06T05:20:23.460Z,100928.17
2018-10-06T05:25:26.811Z,100927.16
2018-10-06T05:30:30.526Z,100921.03
2018-10-06T05:35:33.748Z,100930.73
2018-10-06T05:40:37.085Z,100929.08
2018-10-06T05:45:40.253Z,100917.36
2018-10-06T05:50:44.063Z,100926.78
2018-10-06T05:55:47.522Z,100921.31
2018-10-06T06:00:50.722Z,100917.65
2018-10-06T06:05:54.031Z,100925.19
2018-10-06T06:10:57.226Z,100912.67
2018-10-06T06:16:00.472Z,100897.38
2018-10-06T06:21:03.903Z,100887.89
2018-10-06T06:26:07.205Z,100896.22
2018-10-06T06:31:10.418Z,100898.25
2018-10-06T06:36:13.662Z,100900.74
2018-10-06T06:41:16.913Z,100907.55
2018-10-06T06:46:20.213Z,100907.50
2018-10-06T06:51:23.505Z,100910.45
2018-10-06T06:56:26.658Z,100902.11
2018-10-06T07:01:30.563Z,100893.36
2018-10-06T07:06:33.865Z,100888.63
2018-10-06T07:11:37.074Z,100882.48
2018-10-06T07:16:40.337Z,100879.84
2018-10-06T07:21:43.534Z,100889.61
2018-10-06T07:26:46.762Z,100883.81
2018-10-06T07:31:49.968Z,100885.69
2018-10-06T07:36:53.199Z,100880.80
2018-10-06T07:41:56.380Z,100877.57
2018-10-06T07:46:59.643Z,100875.50
2018-10-06T07:52:03.237Z,100867.42
2018-10-06T07:57:06.583Z,100863.57
2018-10-06T08:02:09.943Z,100868.98
2018-10-06T08:07:13.235Z,100873.00
2018-10-06T08:12:16.418Z,100861.63
2018-10-06T08:17:19.582Z,100854.60
2018-10-06T08:22:22.790Z,100854.20
2018-10-06T08:27:26.000Z,100841.98
2018-10-06T08:32:29.353Z,100836.33
2018-10-06T08:37:32.608Z,100836.47
2018-10-06T08:42:35.829Z,100835.73
2018-10-06T08:47:39.256Z,100837.51
2018-10-06T08:52:42.507Z,100835.91
2018-10-06T08:57:45.662Z,100836.23
2018-10-06T09:02:48.950Z,100827.95
2018-10-06T09:07:52.185Z,100824.28
2018-10-06T09:12:55.316Z,100819.11
2018-10-06T09:17:58.547Z,100819.94
2018-10-06T09:23:01.775Z,100812.00
2018-10-06T09:28:05.383Z,100808.75
2018-10-06T09:33:08.620Z,100795.44
2018-10-06T09:38:11.876Z,100795.25
2018-10-06T09:43:15.141Z,100791.61
2018-10-06T09:48:18.360Z,100796.14
2018-10-06T09:53:21.607Z,100781.23
2018-10-06T09:58:24.767Z,100777.17
2018-10-06T10:03:28.012Z,100779.16
2018-10-06T10:08:31.243Z,100772.11
2018-10-06T10:13:34.640Z,100761.78
2018-10-06T10:18:38.117Z,100757.80
2018-10-06T10:23:41.738Z,100760.89
2018-10-06T10:28:44.937Z,100758.04
2018-10-06T10:33:48.166Z,100754.97
2018-10-06T10:38:51.472Z,100749.44
2018-10-06T10:43:54.665Z,100743.18
2018-10-06T10:48:57.818Z,100744.38
2018-10-06T10:54:01.040Z,100745.56
2018-10-06T10:59:04.507Z,100740.96
2018-10-06T11:04:08.180Z,100719.63
2018-10-06T11:09:11.515Z,100718.14
2018-10-06T11:14:14.806Z,100708.48
2018-10-06T11:19:18.047Z,100702.47
2018-10-06T11:24:21.219Z,100685.70
2018-10-06T11:29:24.434Z,100680.72
2018-10-06T11:34:27.639Z,100681.83
2018-10-06T11:39:31.091Z,100671.22
2018-10-06T11:44:34.352Z,100651.28
2018-10-06T11:49:37.611Z,100653.97
2018-10-06T11:54:41.011Z,100646.14
2018-10-06T11:59:44.307Z,100635.20
2018-10-06T12:04:47.284Z,100633.81
2018-10-06T12:09:51.828Z,100625.07
2018-10-06T12:14:55.026Z,100625.39
2018-10-06T12:19:58.235Z,100599.58
2018-10-06T12:25:01.511Z,100602.88
2018-10-06T12:30:05.366Z,100594.50
2018-10-06T12:35:08.624Z,100589.50
2018-10-06T12:40:12.373Z,100581.77
2018-10-06T12:45:15.671Z,100581.44
2018-10-06T12:50:18.838Z,100574.80
2018-10-06T12:55:22.174Z,100569.34
2018-10-06T13:00:25.489Z,100562.27
2018-10-06T13:05:28.735Z,100563.02
2018-10-06T13:10:32.207Z,100562.61
2018-10-06T13:15:35.437Z,100553.77
2018-10-06T13:20:38.891Z,100547.65
2018-10-06T13:25:42.106Z,100551.38
2018-10-06T13:30:45.317Z,100543.93
2018-10-06T13:35:48.532Z,100537.60
2018-10-06T13:40:51.738Z,100537.57
2018-10-06T13:45:54.866Z,100538.58
2018-10-06T13:50:58.028Z,100536.72
2018-10-06T13:56:01.228Z,100520.41
2018-10-06T14:01:04.757Z,100518.51
2018-10-06T14:06:08.561Z,100517.95
2018-10-06T14:11:11.833Z,100517.92
2018-10-06T14:16:15.318Z,100515.37
2018-10-06T14:21:18.556Z,100506.20
2018-10-06T14:26:22.024Z,100502.31
2018-10-06T14:31:25.184Z,100495.16
2018-10-06T14:36:28.425Z,100495.88
2018-10-06T14:41:31.620Z,100489.88
2018-10-06T14:46:35.084Z,100486.86
2018-10-06T14:51:38.611Z,100484.33
2018-10-06T14:56:42.249Z,100476.70
2018-10-06T15:01:46.426Z,100486.08
2018-10-06T15:06:49.941Z,100480.22
2018-10-06T15:11:54.296Z,100480.01
2018-10-06T15:16:58.477Z,100473.81
2018-10-06T15:22:02.182Z,100468.34
2018-10-06T15:27:06.237Z,100464.06
2018-10-06T15:32:09.484Z,100462.91
2018-10-06T15:37:12.821Z,100457.45
2018-10-06T15:42:16.184Z,100455.99
2018-10-06T15:47:19.721Z,100454.97
2018-10-06T15:52:22.850Z,100451.91
2018-10-06T15:57:26.015Z,100454.16
2018-10-06T16:02:29.493Z,100449.28
2018-10-06T16:07:32.677Z,100447.70
2018-10-06T16:12:35.766Z,100444.06
2018-10-06T16:17:39.529Z,100444.41
2018-10-06T16:22:42.893Z,100446.11
2018-10-06T16:27:46.198Z,100445.82
2018-10-06T16:32:49.431Z,100451.27
2018-10-06T16:37:52.702Z,100440.90
2018-10-06T16:42:56.090Z,100454.52
2018-10-06T16:47:59.314Z,100451.66
2018-10-06T16:53:02.504Z,100450.80
2018-10-06T16:58:06.362Z,100449.28
2018-10-06T17:03:10.006Z,100448.02
2018-10-06T17:08:13.234Z,100446.82
2018-10-06T17:13:16.779Z,100443.36
2018-10-06T17:18:21.135Z,100446.50
2018-10-06T17:23:24.373Z,100446.83
2018-10-06T17:28:27.816Z,100449.69
2018-10-06T17:33:31.904Z,100442.42
2018-10-06T17:38:35.638Z,100439.27
2018-10-06T17:43:39.119Z,100440.67
2018-10-06T17:48:42.803Z,100434.05
2018-10-06T17:53:46.037Z,100436.16
2018-10-06T17:58:49.477Z,100445.09
2018-10-06T18:03:52.561Z,100443.97
2018-10-06T18:08:55.941Z,100435.67
2018-10-06T18:13:59.074Z,100443.25
2018-10-06T18:19:02.243Z,100426.45
2018-10-06T18:24:06.004Z,100430.30
2018-10-06T18:29:10.173Z,100430.78
2018-10-06T18:34:13.416Z,100430.18
2018-10-06T18:39:16.590Z,100436.41
2018-10-06T18:44:20.078Z,100427.19
2018-10-06T18:49:23.373Z,100428.33
2018-10-06T18:54:26.517Z,100433.73
2018-10-06T18:59:29.941Z,100431.86
2018-10-06T19:04:33.383Z,100432.27
2018-10-06T19:09:36.768Z,100427.00
2018-10-06T19:14:40.938Z,100437.88
2018-10-06T19:19:46.066Z,100430.94
2018-10-06T19:24:50.991Z,100429.38
2018-10-06T19:29:55.347Z,100434.23
2018-10-06T19:34:59.533Z,100435.39
2018-10-06T19:40:04.661Z,100436.73
2018-10-06T19:45:10.123Z,100444.83
2018-10-06T19:50:16.189Z,100445.11
2018-10-06T19:55:21.328Z,100441.16
2018-10-06T20:00:26.330Z,100448.02
2018-10-06T20:05:29.780Z,100451.97
2018-10-06T20:10:33.775Z,100451.74
2018-10-06T20:15:38.791Z,100453.64
2018-10-06T20:20:42.750Z,100454.46
2018-10-06T20:25:46.543Z,100453.39
2018-10-06T20:30:50.464Z,100460.77
2018-10-06T20:35:55.623Z,100460.80
2018-10-06T20:40:59.113Z,100458.01
2018-10-06T20:46:02.248Z,100464.44
2018-10-06T20:51:05.442Z,100461.00
2018-10-06T20:56:09.115Z,100464.45
2018-10-06T21:01:12.385Z,100464.95
2018-10-06T21:06:15.689Z,100469.00
2018-10-06T21:11:19.219Z,100471.31
2018-10-06T21:16:22.559Z,100468.89
2018-10-06T21:21:26.476Z,100472.80
2018-10-06T21:26:30.391Z,100462.59
2018-10-06T21:31:35.076Z,100463.47
2018-10-06T21:36:39.254Z,100456.00
2018-10-06T21:41:43.578Z,100457.91
2018-10-06T21:46:48.719Z,100464.02
2018-10-06T21:51:52.169Z,100458.59
2018-10-06T21:56:56.431Z,100459.22
2018-10-06T22:02:01.356Z,100460.34
2018-10-06T22:07:06.458Z,100456.87
2018-10-06T22:12:11.589Z,100453.44
2018-10-06T22:17:14.817Z,100448.13
2018-10-06T22:22:18.820Z,100453.75
2018-10-06T22:27:22.126Z,100450.84
2018-10-06T22:32:25.313Z,100448.02
2018-10-06T22:37:28.488Z,100453.33
2018-10-06T22:42:41.866Z,100446.67
2018-10-06T22:47:45.826Z,100456.11
2018-10-06T22:52:49.550Z,100446.34
2018-10-06T22:57:52.722Z,100450.89
2018-10-06T23:02:55.916Z,100447.34
2018-10-06T23:07:59.326Z,100446.48
2018-10-06T23:13:03.261Z,100444.83
2018-10-06T23:18:06.835Z,100450.02
2018-10-06T23:23:10.604Z,100454.05
2018-10-06T23:28:13.997Z,100461.67
2018-10-06T23:33:17.776Z,100460.03
2018-10-06T23:38:20.910Z,100452.64
2018-10-06T23:43:24.080Z,100460.62
2018-10-06T23:48:27.601Z,100453.61
2018-10-06T23:53:31.081Z,100456.85
2018-10-06T23:58:34.697Z,100447.64
